Time;durP1;ratioP1;P1;durP2;ratioP2;P2;SDS_P1;SDS_P2;PMS_P1;PMS_P2;Temp;Humidity;BMP_temperature;BMP_pressure;BME280_temperature;BME280_humidity;BME280_pressure;Samples;Min_cycle;Max_cycle;Signal;HPM_P1;HPM_P2
2022/04/22 00:01:05;;;;;;;2.00;0.40;;;20.20;98.50;;;;;;5108292;28;21542;-70
2022/04/22 00:03:32;;;;;;;4.00;0.30;;;20.20;98.60;;;;;;5107417;27;20075;-70
2022/04/22 00:06:01;;;;;;;3.95;0.82;;;20.20;98.00;;;;;;5098843;28;20466;-70
2022/04/22 00:08:28;;;;;;;1.65;0.73;;;20.20;97.90;;;;;;5098984;28;20052;-70
2022/04/22 00:13:43;;;;;;;1.75;0.40;;;20.20;98.10;;;;;;5096024;28;20512;-71
2022/04/22 00:16:10;;;;;;;3.72;1.75;;;20.20;98.20;;;;;;5096518;28;20398;-70
2022/04/22 00:18:39;;;;;;;4.55;0.70;;;20.30;98.20;;;;;;5095699;28;20031;-71
2022/04/22 00:21:07;;;;;;;2.58;0.32;;;20.40;98.60;;;;;;5098628;27;20031;-71
2022/04/22 00:23:34;;;;;;;5.47;1.52;;;20.60;98.00;;;;;;5099273;28;20382;-71
2022/04/22 00:26:01;;;;;;;2.47;0.80;;;20.60;98.70;;;;;;5098781;28;20023;-70
2022/04/22 00:28:29;;;;;;;2.28;0.47;;;20.70;97.90;;;;;;5100809;28;20016;-70
2022/04/22 00:30:56;;;;;;;3.15;0.30;;;20.80;97.90;;;;;;5094774;27;20100;-70
2022/04/22 00:33:24;;;;;;;1.42;0.30;;;20.80;98.20;;;;;;5100087;27;20354;-69
2022/04/22 00:35:51;;;;;;;2.45;0.43;;;20.90;97.90;;;;;;5103449;27;20020;-71
2022/04/22 00:38:19;;;;;;;2.05;0.40;;;20.90;98.00;;;;;;5097409;27;20394;-69
2022/04/22 00:40:47;;;;;;;2.22;0.60;;;20.90;97.90;;;;;;5098090;27;20061;-70
2022/04/22 00:43:16;;;;;;;2.63;0.35;;;21.00;98.40;;;;;;5099323;28;20070;-70
2022/04/22 00:45:43;;;;;;;2.63;0.38;;;21.10;97.90;;;;;;5101424;28;20092;-69
2022/04/22 00:48:13;;;;;;;2.00;0.50;;;21.10;98.10;;;;;;5109505;28;20055;-68
2022/04/22 00:50:41;;;;;;;4.13;0.55;;;21.10;98.00;;;;;;5101597;27;20441;-70
2022/04/22 00:53:09;;;;;;;2.22;0.45;;;21.20;97.70;;;;;;5113216;27;20027;-71
2022/04/22 00:55:40;;;;;;;2.10;0.30;;;21.30;97.90;;;;;;5102985;28;20031;-69
2022/04/22 00:58:08;;;;;;;2.40;0.30;;;21.40;97.70;;;;;;5111655;27;20045;-70
2022/04/22 01:00:37;;;;;;;1.65;0.32;;;21.40;97.70;;;;;;5129517;27;20027;-70
2022/04/22 01:03:07;;;;;;;4.60;0.77;;;21.50;97.70;;;;;;5100275;27;20035;-70
2022/04/22 01:11:06;;;;;;;;;;;21.90;97.20;;;;;;5107879;28;20078;-70
2022/04/22 01:13:34;;;;;;;5.22;0.40;;;22.40;97.10;;;;;;5105650;28;19908;-69
2022/04/22 01:16:01;;;;;;;3.22;0.75;;;23.20;96.50;;;;;;5098511;27;20030;-71
2022/04/22 01:18:29;;;;;;;4.88;0.80;;;23.50;96.10;;;;;;5113032;27;20081;-68
2022/04/22 01:21:01;;;;;;;4.75;0.73;;;23.50;95.80;;;;;;5081221;28;20024;-70
2022/04/22 01:23:29;;;;;;;3.80;0.55;;;23.30;95.50;;;;;;5103207;28;20475;-71
2022/04/22 01:25:57;;;;;;;2.83;0.43;;;23.20;96.00;;;;;;5094663;28;20020;-69
2022/04/22 01:28:26;;;;;;;5.85;0.60;;;23.10;95.90;;;;;;5096213;28;20028;-69
2022/04/22 01:30:58;;;;;;;1.60;0.60;;;22.90;96.30;;;;;;5095006;28;20482;-70
2022/04/22 01:33:25;;;;;;;3.13;1.10;;;22.90;96.40;;;;;;5099143;28;20027;-73
2022/04/22 01:35:53;;;;;;;1.88;0.40;;;22.90;96.30;;;;;;5095535;28;20024;-69
2022/04/22 01:38:20;;;;;;;4.35;0.77;;;23.00;96.50;;;;;;5101368;28;20024;-70
2022/04/22 01:40:48;;;;;;;3.30;0.50;;;23.00;96.40;;;;;;5109157;28;20496;-70
2022/04/22 01:43:15;;;;;;;7.00;1.25;;;22.90;96.20;;;;;;5116010;28;20427;-71
2022/04/22 01:45:43;;;;;;;3.08;0.57;;;22.80;96.30;;;;;;5104580;28;20443;-70
2022/04/22 01:48:10;;;;;;;5.25;0.50;;;22.70;96.50;;;;;;5100981;28;20744;-70
2022/04/22 01:50:37;;;;;;;8.18;1.27;;;22.50;96.20;;;;;;5103443;28;20031;-70
2022/04/22 01:53:06;;;;;;;3.70;0.55;;;22.40;96.60;;;;;;5097448;28;20039;-71
2022/04/22 01:55:36;;;;;;;7.78;1.45;;;22.20;96.70;;;;;;5096907;28;20065;-71
2022/04/22 01:58:03;;;;;;;1.13;0.40;;;22.20;96.90;;;;;;5093784;28;20028;-70
2022/04/22 02:00:31;;;;;;;4.65;0.73;;;22.20;97.30;;;;;;5096354;28;20032;-71
2022/04/22 02:03:00;;;;;;;3.42;0.70;;;22.20;96.90;;;;;;5095007;28;20029;-70
2022/04/22 02:05:27;;;;;;;4.32;0.50;;;22.20;97.20;;;;;;5094140;28;20410;-71
2022/04/22 02:07:55;;;;;;;7.57;0.90;;;22.60;97.00;;;;;;5095223;28;20038;-71
2022/04/22 02:10:22;;;;;;;2.33;0.55;;;22.80;96.60;;;;;;5097101;28;20389;-71
2022/04/22 02:12:49;;;;;;;1.45;0.60;;;22.70;96.90;;;;;;5095294;28;20036;-71
2022/04/22 02:15:18;;;;;;;3.72;0.40;;;22.50;97.00;;;;;;5095898;27;20105;-72
2022/04/22 02:17:46;;;;;;;6.70;0.75;;;22.20;97.20;;;;;;5100042;27;20034;-72
2022/04/22 02:20:13;;;;;;;3.40;0.40;;;21.80;97.60;;;;;;5104016;28;20031;-70
2022/04/22 02:22:40;;;;;;;4.32;0.70;;;21.40;98.00;;;;;;5097520;27;20111;-70
2022/04/22 02:25:08;;;;;;;2.17;0.30;;;21.30;98.40;;;;;;5101060;27;20537;-70
2022/04/22 02:30:23;;;;;;;4.68;0.40;;;21.20;98.70;;;;;;5101997;28;20042;-70
2022/04/22 02:32:51;;;;;;;2.97;0.45;;;21.20;98.60;;;;;;5100686;27;20039;-69
2022/04/22 02:35:21;;;;;;;4.57;0.50;;;21.20;98.90;;;;;;5101726;27;20461;-70
2022/04/22 02:37:50;;;;;;;2.60;0.30;;;21.30;98.60;;;;;;5098387;27;20028;-71
2022/04/22 02:45:50;;;;;;;2.40;0.52;;;21.30;98.30;;;;;;5098753;27;20063;-70
2022/04/22 02:48:17;;;;;;;7.80;1.60;;;21.20;98.60;;;;;;5103051;28;20043;-71
2022/04/22 02:50:45;;;;;;;3.92;0.70;;;21.20;99.10;;;;;;5103099;27;20035;-70
2022/04/22 02:53:12;;;;;;;5.22;0.65;;;21.20;98.60;;;;;;5103149;27;20036;-69
2022/04/22 02:55:47;;;;;;;7.88;0.82;;;21.30;98.70;;;;;;5098413;28;20093;-71
2022/04/22 02:58:15;;;;;;;5.22;0.77;;;21.20;98.60;;;;;;5095829;27;20548;-70
2022/04/22 03:00:42;;;;;;;3.35;1.17;;;21.10;99.10;;;;;;5100281;28;20027;-71
2022/04/22 03:03:10;;;;;;;1.65;0.52;;;21.20;98.70;;;;;;5097065;27;20124;-69
2022/04/22 03:05:37;;;;;;;5.45;0.88;;;21.10;99.10;;;;;;5104467;27;20062;-70
2022/04/22 03:08:06;;;;;;;1.80;0.30;;;21.20;99.00;;;;;;5099352;27;20035;-70
2022/04/22 03:10:33;;;;;;;3.78;0.47;;;21.10;98.60;;;;;;5104059;27;20397;-71
2022/04/22 03:13:06;;;;;;;4.20;0.55;;;20.90;98.60;;;;;;5106840;28;20015;-70
2022/04/22 03:15:34;;;;;;;1.35;0.77;;;20.80;98.70;;;;;;5106924;28;20033;-71
2022/04/22 03:18:01;;;;;;;7.68;0.60;;;20.70;99.00;;;;;;5103176;28;20032;-69
2022/04/22 03:20:29;;;;;;;2.22;0.47;;;20.80;99.00;;;;;;5096388;28;20434;-70
2022/04/22 03:22:56;;;;;;;4.53;0.77;;;20.80;99.10;;;;;;5109864;27;20373;-71
2022/04/22 03:25:24;;;;;;;3.08;0.63;;;20.70;99.00;;;;;;5110331;28;20043;-71
2022/04/22 03:27:52;;;;;;;1.35;0.93;;;20.70;99.20;;;;;;5102303;27;20395;-71
2022/04/22 03:30:19;;;;;;;1.48;0.30;;;20.60;99.30;;;;;;5097243;28;20034;-70
2022/04/22 03:32:47;;;;;;;0.75;0.30;;;20.70;99.60;;;;;;5098843;27;20359;-71
2022/04/22 03:35:14;;;;;;;4.60;0.50;;;20.70;99.30;;;;;;5080748;28;20465;-71
2022/04/22 03:37:42;;;;;;;1.52;0.28;;;20.70;99.10;;;;;;5100483;27;20027;-71
2022/04/22 03:40:10;;;;;;;5.15;0.40;;;20.70;99.00;;;;;;5097923;27;20016;-70
2022/04/22 03:42:38;;;;;;;5.45;0.68;;;20.70;99.30;;;;;;5104927;28;20454;-71
2022/04/22 03:45:06;;;;;;;2.67;0.70;;;20.70;99.60;;;;;;5092560;28;20032;-70
2022/04/22 03:47:33;;;;;;;5.72;1.38;;;20.70;99.50;;;;;;5101650;27;20054;-72
2022/04/22 03:50:00;;;;;;;5.77;1.57;;;20.70;99.60;;;;;;5100508;28;20027;-72
2022/04/22 03:52:28;;;;;;;4.95;0.60;;;20.60;99.70;;;;;;5103896;27;20149;-70
2022/04/22 03:54:55;;;;;;;3.03;0.50;;;20.50;99.90;;;;;;5091591;28;20028;-70
2022/04/22 04:00:08;;;;;;;2.53;0.70;;;20.50;99.90;;;;;;5109540;27;20068;-71
2022/04/22 04:02:36;;;;;;;3.22;0.40;;;20.60;99.90;;;;;;5105869;28;20031;-71
2022/04/22 04:05:03;;;;;;;3.13;0.50;;;20.70;99.80;;;;;;5099949;28;20061;-71
2022/04/22 04:07:31;;;;;;;3.03;0.43;;;20.70;99.90;;;;;;5096860;28;20333;-71
2022/04/22 04:18:14;;;;;;;1.52;0.25;;;20.60;99.90;;;;;;5097559;28;20073;-71
2022/04/22 04:23:26;;;;;;;4.93;0.77;;;20.40;99.90;;;;;;5096819;28;20031;-71
2022/04/22 04:25:54;;;;;;;1.05;0.40;;;20.40;99.90;;;;;;5106891;28;20052;-72
2022/04/22 04:28:23;;;;;;;3.25;0.30;;;20.40;99.90;;;;;;5099242;28;20023;-71
2022/04/22 04:30:50;;;;;;;2.05;0.57;;;20.40;99.90;;;;;;5107438;28;20043;-71
2022/04/22 04:33:18;;;;;;;4.90;0.60;;;20.40;99.80;;;;;;5109193;27;20039;-70
2022/04/22 04:35:50;;;;;;;3.22;0.40;;;20.40;99.90;;;;;;5111649;28;20023;-71
2022/04/22 04:38:19;;;;;;;8.10;0.52;;;20.40;99.90;;;;;;5106906;28;20103;-72
2022/04/22 04:40:46;;;;;;;4.03;1.15;;;20.40;99.90;;;;;;5104329;28;20545;-70
2022/04/22 04:43:14;;;;;;;3.38;0.60;;;20.50;99.90;;;;;;5098878;28;20035;-71
2022/04/22 04:45:42;;;;;;;4.30;0.43;;;20.50;99.90;;;;;;5102160;28;20023;-71
2022/04/22 04:48:10;;;;;;;3.22;0.55;;;20.50;99.90;;;;;;5096130;28;20047;-71
2022/04/22 04:50:39;;;;;;;1.83;0.80;;;20.40;99.90;;;;;;5100233;27;20115;-71
2022/04/22 04:53:06;;;;;;;4.40;0.50;;;20.40;99.90;;;;;;5094014;28;20028;-71
2022/04/22 04:55:34;;;;;;;1.70;0.25;;;20.50;99.90;;;;;;5099819;27;20147;-72
2022/04/22 04:58:02;;;;;;;1.70;0.30;;;20.50;99.90;;;;;;5106723;27;20030;-72
2022/04/22 05:00:29;;;;;;;5.88;0.95;;;20.50;99.90;;;;;;5098081;28;20565;-72
2022/04/22 05:02:57;;;;;;;3.13;0.52;;;20.40;99.90;;;;;;5096547;28;20475;-71
2022/04/22 05:05:25;;;;;;;2.53;0.43;;;20.00;99.90;;;;;;5098233;28;20050;-72
2022/04/22 05:07:56;;;;;;;6.07;1.02;;;19.70;99.90;;;;;;5099514;28;20027;-72
2022/04/22 05:10:25;;;;;;;10.18;1.00;;;19.30;99.90;;;;;;5097342;28;20134;-72
2022/04/22 05:12:53;;;;;;;3.88;0.90;;;19.10;99.90;;;;;;5098423;28;20124;-70
2022/04/22 05:15:25;;;;;;;6.97;0.85;;;18.90;99.90;;;;;;5096641;28;20031;-71
2022/04/22 05:17:54;;;;;;;11.95;0.90;;;18.80;99.90;;;;;;5094353;28;20113;-72
2022/04/22 05:20:26;;;;;;;2.20;0.40;;;18.80;99.90;;;;;;5104138;28;20027;-70
2022/04/22 05:22:55;;;;;;;2.58;0.80;;;18.70;99.90;;;;;;5117330;27;20457;-72
2022/04/22 05:25:24;;;;;;;5.85;1.20;;;18.70;99.90;;;;;;5105731;28;20016;-70
2022/04/22 05:27:51;;;;;;;1.50;0.57;;;18.70;99.90;;;;;;5109632;28;20646;-71
2022/04/22 05:33:04;;;;;;;2.10;0.40;;;18.70;99.90;;;;;;5109228;28;20080;-71
2022/04/22 05:35:32;;;;;;;2.38;0.55;;;18.60;99.90;;;;;;5097306;28;20051;-71
2022/04/22 05:38:02;;;;;;;1.42;0.50;;;18.80;99.90;;;;;;5093268;28;20024;-72
2022/04/22 05:40:35;;;;;;;1.85;0.85;;;18.80;99.90;;;;;;5093747;28;20889;-72
2022/04/22 05:43:04;;;;;;;2.70;0.43;;;18.80;99.90;;;;;;5104749;28;20024;-72
2022/04/22 05:45:31;;;;;;;0.95;0.40;;;18.80;99.90;;;;;;5110041;28;20059;-72
2022/04/22 05:47:59;;;;;;;2.75;0.80;;;18.80;99.90;;;;;;5100655;28;20383;-71
2022/04/22 05:50:28;;;;;;;12.50;6.18;;;18.60;99.90;;;;;;5099155;28;20397;-72
2022/04/22 05:52:56;;;;;;;8.30;4.07;;;18.50;99.90;;;;;;5111012;27;20035;-72
2022/04/22 05:55:25;;;;;;;5.35;2.20;;;18.40;99.90;;;;;;5110723;28;20319;-70
2022/04/22 05:57:53;;;;;;;2.28;1.35;;;18.40;99.90;;;;;;5111428;28;20027;-72
2022/04/22 06:00:23;;;;;;;4.05;0.73;;;18.30;99.90;;;;;;5108149;27;20027;-71
2022/04/22 06:02:58;;;;;;;3.30;1.13;;;18.20;99.90;;;;;;5097790;28;20032;-69
2022/04/22 06:05:26;;;;;;;5.20;1.77;;;18.30;99.90;;;;;;5095402;28;20047;-71
2022/04/22 06:10:41;;;;;;;1.33;0.30;;;18.70;99.90;;;;;;5099343;28;20035;-72
2022/04/22 06:13:09;;;;;;;1.33;0.35;;;18.70;99.90;;;;;;5085672;28;20031;-71
2022/04/22 06:15:36;;;;;;;2.15;1.02;;;18.70;99.90;;;;;;5103041;28;20050;-70
2022/04/22 06:18:04;;;;;;;1.55;0.40;;;18.80;99.90;;;;;;5102314;27;20474;-71
2022/04/22 06:20:35;;;;;;;3.55;0.52;;;18.80;99.90;;;;;;5105054;27;20031;-71
2022/04/22 06:23:03;;;;;;;3.08;0.50;;;19.00;99.90;;;;;;5085158;28;20020;-71
2022/04/22 06:25:31;;;;;;;2.13;0.52;;;19.00;99.90;;;;;;5113210;28;20129;-70
2022/04/22 06:27:59;;;;;;;2.90;0.45;;;19.00;99.90;;;;;;5095891;28;20032;-70
2022/04/22 06:30:26;;;;;;;1.55;0.88;;;19.00;99.90;;;;;;5113132;27;20110;-71
2022/04/22 06:32:55;;;;;;;2.70;0.57;;;19.00;99.90;;;;;;5121459;27;20095;-70
2022/04/22 06:35:22;;;;;;;3.13;0.28;;;18.80;99.90;;;;;;5125016;27;20034;-72
2022/04/22 06:37:54;;;;;;;2.90;0.90;;;18.80;99.90;;;;;;5108689;27;20470;-70
2022/04/22 06:45:53;;;;;;;;;;;18.40;99.90;;;;;;5101826;27;20078;-70
2022/04/22 06:48:35;;;;;;;2.50;1.23;;;18.40;99.90;;;;;;5111922;28;20300;-71
2022/04/22 06:51:07;;;;;;;5.40;0.43;;;18.40;99.90;;;;;;5099298;27;20044;-69
2022/04/22 06:53:36;;;;;;;5.50;0.70;;;18.30;99.90;;;;;;5102348;28;20020;-70
2022/04/22 06:56:06;;;;;;;4.10;0.47;;;18.30;99.90;;;;;;5109273;27;20486;-69
2022/04/22 06:58:37;;;;;;;3.08;0.30;;;18.30;99.90;;;;;;5109539;27;20047;-70
2022/04/22 07:01:05;;;;;;;3.28;0.40;;;18.20;99.90;;;;;;5093341;28;20364;-70
2022/04/22 07:03:33;;;;;;;2.63;0.40;;;18.20;99.90;;;;;;5110479;28;20024;-69
2022/04/22 07:06:00;;;;;;;3.53;0.60;;;18.20;99.90;;;;;;5101029;27;20107;-71
2022/04/22 07:08:28;;;;;;;9.00;1.80;;;18.30;99.90;;;;;;5120248;27;20110;-70
2022/04/22 07:10:57;;;;;;;3.50;1.60;;;18.30;99.90;;;;;;5110971;27;20466;-71
2022/04/22 07:13:24;;;;;;;2.10;1.35;;;18.30;99.90;;;;;;5117421;27;20019;-71
2022/04/22 07:15:54;;;;;;;4.22;1.85;;;18.30;99.90;;;;;;5110280;27;20469;-70
2022/04/22 07:18:21;;;;;;;4.22;1.08;;;18.30;99.90;;;;;;5097553;27;20032;-70
2022/04/22 07:20:49;;;;;;;0.85;0.40;;;18.30;99.90;;;;;;5099135;27;20075;-70
2022/04/22 07:23:16;;;;;;;3.78;0.43;;;18.30;99.90;;;;;;5098982;28;20036;-71
2022/04/22 07:25:46;;;;;;;2.83;0.40;;;18.30;99.90;;;;;;5097970;27;20402;-71
2022/04/22 07:28:14;;;;;;;2.35;0.80;;;18.30;99.90;;;;;;5101498;27;20039;-71
2022/04/22 07:30:46;;;;;;;2.60;0.45;;;18.20;99.90;;;;;;5091344;28;20067;-72
2022/04/22 07:33:14;;;;;;;2.15;0.30;;;18.20;99.90;;;;;;5103872;27;20030;-72
2022/04/22 07:35:41;;;;;;;2.53;0.38;;;18.20;99.90;;;;;;5097521;28;20070;-71
2022/04/22 07:38:10;;;;;;;2.17;0.30;;;18.20;99.90;;;;;;5095515;27;20039;-71
2022/04/22 07:40:40;;;;;;;1.23;0.22;;;18.20;99.90;;;;;;5096637;27;20034;-71
2022/04/22 07:48:39;;;;;;;2.97;1.10;;;18.20;99.90;;;;;;5098676;28;20055;-72
2022/04/22 07:51:06;;;;;;;3.83;0.50;;;18.20;99.90;;;;;;5098969;27;20469;-71
2022/04/22 07:53:35;;;;;;;1.35;0.30;;;18.30;99.90;;;;;;5098409;27;20036;-72
2022/04/22 07:56:06;;;;;;;1.73;0.30;;;18.30;99.90;;;;;;5096891;27;20658;-71
2022/04/22 07:58:34;;;;;;;0.80;0.38;;;18.30;99.90;;;;;;5096347;27;20032;-70
2022/04/22 08:01:01;;;;;;;3.03;0.38;;;18.30;99.90;;;;;;5096638;27;20031;-75
2022/04/22 08:03:29;;;;;;;1.67;0.60;;;18.20;99.90;;;;;;5093883;27;20084;-71
2022/04/22 08:05:57;;;;;;;2.63;0.70;;;18.20;99.90;;;;;;5081435;28;20056;-71
2022/04/22 08:08:28;;;;;;;4.05;0.63;;;18.20;99.90;;;;;;5096630;27;20040;-71
2022/04/22 08:10:56;;;;;;;3.17;0.65;;;18.20;99.90;;;;;;5099208;27;20063;-72
2022/04/22 08:13:26;;;;;;;7.43;1.40;;;18.10;99.90;;;;;;5092122;27;20358;-72
2022/04/22 08:15:54;;;;;;;4.57;0.95;;;18.10;99.90;;;;;;5097937;28;20533;-72
2022/04/22 08:18:21;;;;;;;2.55;0.80;;;18.00;99.90;;;;;;5097263;28;20039;-73
2022/04/22 08:20:49;;;;;;;4.95;1.42;;;17.80;99.90;;;;;;5100360;27;20058;-71
2022/04/22 08:23:20;;;;;;;4.70;1.55;;;17.70;99.90;;;;;;5099614;27;20150;-73
2022/04/22 08:25:47;;;;;;;4.65;1.83;;;17.60;99.90;;;;;;5099336;28;20039;-72
2022/04/22 08:28:15;;;;;;;4.10;1.73;;;17.50;99.90;;;;;;5096323;28;20031;-72
2022/04/22 08:30:42;;;;;;;4.32;1.40;;;17.40;99.90;;;;;;5096787;28;20032;-71
2022/04/22 08:33:09;;;;;;;4.97;2.30;;;17.30;99.90;;;;;;5100789;27;20105;-72
2022/04/22 08:35:37;;;;;;;1.85;1.10;;;17.30;99.90;;;;;;5104332;27;20079;-73
2022/04/22 08:38:06;;;;;;;3.92;0.80;;;17.30;99.90;;;;;;5098777;27;20179;-71
2022/04/22 08:40:39;;;;;;;2.92;0.57;;;17.30;99.90;;;;;;5100330;27;20028;-71
2022/04/22 08:43:12;;;;;;;4.28;0.35;;;17.20;99.90;;;;;;5098387;27;20582;-73
2022/04/22 08:45:39;;;;;;;2.33;0.45;;;17.20;99.90;;;;;;5098355;28;20115;-73
2022/04/22 08:50:58;;;;;;;1.33;0.85;;;17.20;99.90;;;;;;5045839;27;20126;-72
2022/04/22 08:53:30;;;;;;;4.70;1.33;;;17.10;99.90;;;;;;5083749;28;20046;-73
2022/04/22 08:56:02;;;;;;;2.50;0.73;;;17.20;99.90;;;;;;5107336;27;20042;-72
2022/04/22 08:58:30;;;;;;;3.83;0.90;;;17.10;99.90;;;;;;5102315;28;20026;-73
2022/04/22 09:00:58;;;;;;;2.00;0.60;;;17.10;99.90;;;;;;5097339;27;20031;-70
2022/04/22 09:03:29;;;;;;;2.85;1.00;;;17.10;99.90;;;;;;5098310;28;20108;-72
2022/04/22 09:05:57;;;;;;;3.80;0.85;;;17.00;99.90;;;;;;5097352;28;20042;-73
2022/04/22 09:08:31;;;;;;;3.22;1.10;;;17.00;99.90;;;;;;5098901;28;20028;-72
2022/04/22 09:11:03;;;;;;;4.50;0.63;;;17.00;99.90;;;;;;5097865;28;20031;-73
2022/04/22 09:13:30;;;;;;;1.77;0.52;;;17.00;99.90;;;;;;5099661;28;20541;-73
2022/04/22 09:16:01;;;;;;;2.22;0.20;;;17.00;99.90;;;;;;5096453;28;20027;-74
2022/04/22 09:18:30;;;;;;;0.55;0.32;;;17.00;99.90;;;;;;5096990;28;20028;-73
2022/04/22 09:21:02;;;;;;;2.10;0.40;;;17.00;99.90;;;;;;5097173;28;20027;-73
2022/04/22 09:23:34;;;;;;;3.22;0.43;;;17.00;99.90;;;;;;5099273;28;20035;-73
2022/04/22 09:26:08;;;;;;;0.90;0.60;;;17.00;99.90;;;;;;5072159;28;20016;-74
2022/04/22 09:28:39;;;;;;;2.47;0.40;;;17.00;99.90;;;;;;5101337;28;20056;-73
2022/04/22 09:31:06;;;;;;;2.22;0.47;;;17.00;99.90;;;;;;5100162;28;20082;-73
2022/04/22 09:33:54;;;;;;;1.80;0.88;;;17.00;99.90;;;;;;5113173;28;20042;-72
2022/04/22 09:45:06;;;;;;;2.97;0.80;;;16.90;99.90;;;;;;5098937;28;20472;-73
2022/04/22 09:47:35;;;;;;;0.93;0.40;;;16.90;99.90;;;;;;5097404;28;20572;-74
2022/04/22 09:50:11;;;;;;;1.92;0.68;;;16.80;99.90;;;;;;5096027;28;20024;-73
2022/04/22 09:52:43;;;;;;;2.70;0.73;;;16.80;99.90;;;;;;5097429;28;20065;-73
2022/04/22 09:55:16;;;;;;;2.83;0.68;;;16.80;99.90;;;;;;5097679;28;20026;-73
2022/04/22 09:57:59;;;;;;;1.90;0.82;;;16.80;99.90;;;;;;5096667;28;20020;-72
2022/04/22 10:00:31;;;;;;;0.70;0.25;;;16.80;99.90;;;;;;5099664;28;20073;-74
2022/04/22 10:03:00;;;;;;;2.85;0.30;;;16.80;99.90;;;;;;5107971;28;20066;-73
2022/04/22 10:05:31;;;;;;;1.75;0.20;;;16.80;99.90;;;;;;5109844;28;20099;-72
2022/04/22 10:08:02;;;;;;;1.67;0.40;;;16.70;99.90;;;;;;5105137;28;20089;-73
2022/04/22 10:10:38;;;;;;;1.60;0.28;;;16.70;99.90;;;;;;5099311;28;20047;-73
2022/04/22 10:13:08;;;;;;;2.05;0.38;;;16.70;99.90;;;;;;5097949;28;20043;-74
2022/04/22 10:15:39;;;;;;;1.35;0.20;;;16.70;99.90;;;;;;5098197;28;20077;-74
2022/04/22 10:18:12;;;;;;;2.50;0.68;;;16.60;99.90;;;;;;5096439;28;20110;-73
2022/04/22 10:20:40;;;;;;;3.15;0.60;;;16.70;99.90;;;;;;5098151;28;20035;-72
2022/04/22 10:23:07;;;;;;;3.90;0.70;;;16.60;99.90;;;;;;5096877;28;20032;-73
2022/04/22 10:25:35;;;;;;;1.35;0.45;;;16.60;99.90;;;;;;5098185;28;20118;-73
2022/04/22 10:28:09;;;;;;;0.85;0.30;;;16.50;99.90;;;;;;5097520;28;20598;-73
2022/04/22 10:30:42;;;;;;;0.30;0.30;;;16.50;99.90;;;;;;5099397;28;20468;-74
2022/04/22 10:33:11;;;;;;;0.28;0.28;;;16.50;99.90;;;;;;5110952;28;20038;-73
2022/04/22 10:35:43;;;;;;;1.85;0.40;;;16.60;99.90;;;;;;5108534;28;20038;-73
2022/04/22 10:38:29;;;;;;;1.30;0.63;;;16.50;99.90;;;;;;5122304;27;20035;-72
2022/04/22 10:40:56;;;;;;;4.78;0.57;;;16.50;99.90;;;;;;5103706;27;20020;-74
2022/04/22 10:43:26;;;;;;;2.05;0.40;;;16.60;99.90;;;;;;5100458;28;20043;-73
2022/04/22 10:48:41;;;;;;;0.90;0.40;;;16.50;99.90;;;;;;5101445;27;20138;-73
2022/04/22 10:51:09;;;;;;;1.52;0.30;;;16.50;99.90;;;;;;5099415;27;20043;-72
2022/04/22 10:53:49;;;;;;;2.42;0.20;;;16.50;99.90;;;;;;5103383;28;20055;-73
2022/04/22 10:56:29;;;;;;;3.92;0.70;;;16.50;99.90;;;;;;5101933;27;20576;-74
2022/04/22 10:59:21;;;;;;;3.95;0.73;;;16.50;99.90;;;;;;5101319;28;20132;-72
2022/04/22 11:01:52;;;;;;;4.05;1.40;;;16.50;99.90;;;;;;5103016;28;20039;-73
2022/04/22 11:04:31;;;;;;;1.73;0.60;;;16.50;99.90;;;;;;5108845;28;20024;-74
2022/04/22 11:06:58;;;;;;;3.40;0.73;;;16.50;99.90;;;;;;5127376;27;20041;-73
2022/04/22 11:09:27;;;;;;;0.82;0.68;;;16.50;99.90;;;;;;5109657;28;20038;-73
2022/04/22 11:11:56;;;;;;;3.75;0.40;;;16.50;99.90;;;;;;5100123;27;20375;-73
2022/04/22 11:14:28;;;;;;;2.33;0.40;;;16.50;99.90;;;;;;5100870;27;20035;-71
2022/04/22 11:17:16;;;;;;;2.08;0.30;;;16.50;99.90;;;;;;5100053;27;20482;-72
2022/04/22 11:19:59;;;;;;;2.47;0.60;;;16.60;99.90;;;;;;5101310;28;20359;-71
2022/04/22 11:22:58;;;;;;;1.48;0.47;;;16.60;99.90;;;;;;5099522;27;22808;-72
2022/04/22 11:25:26;;;;;;;0.73;0.40;;;16.50;99.90;;;;;;5100388;28;20028;-73
2022/04/22 11:27:56;;;;;;;0.57;0.20;;;16.60;99.90;;;;;;5102162;27;20050;-73
2022/04/22 11:30:25;;;;;;;0.90;0.40;;;16.60;99.90;;;;;;5100411;28;20019;-73
2022/04/22 11:33:21;;;;;;;0.50;0.38;;;16.60;99.90;;;;;;5098982;27;20027;-73
2022/04/22 11:35:58;;;;;;;1.15;0.43;;;16.60;99.90;;;;;;5101052;28;20042;-73
2022/04/22 11:38:26;;;;;;;1.25;0.70;;;16.50;99.90;;;;;;5100560;27;20115;-72
2022/04/22 11:40:53;;;;;;;1.33;0.63;;;16.60;99.90;;;;;;5100761;28;20504;-73
2022/04/22 11:43:21;;;;;;;2.80;1.98;;;16.50;99.90;;;;;;5101627;28;20708;-73
2022/04/22 11:45:51;;;;;;;9.52;2.40;;;16.50;99.90;;;;;;5100572;27;20026;-73
2022/04/22 11:48:25;;;;;;;3.72;2.17;;;16.50;99.90;;;;;;5099001;28;20118;-74
2022/04/22 11:50:57;;;;;;;2.53;1.50;;;16.50;99.90;;;;;;5099843;27;20746;-72
2022/04/22 11:53:34;;;;;;;1.75;0.70;;;16.50;99.90;;;;;;5099378;28;20035;-72
2022/04/22 11:56:03;;;;;;;0.93;0.20;;;16.50;99.90;;;;;;5097214;28;20129;-73
2022/04/22 11:58:32;;;;;;;1.20;0.47;;;16.50;99.90;;;;;;5083190;28;20105;-72
2022/04/22 12:06:31;;;;;;;2.37;0.30;;;16.50;99.90;;;;;;5099541;28;20043;-72
2022/04/22 12:09:01;;;;;;;1.80;0.60;;;16.40;99.90;;;;;;5099283;28;20027;-73
2022/04/22 12:11:28;;;;;;;0.63;0.10;;;16.40;99.90;;;;;;5114449;27;20447;-72
2022/04/22 12:13:57;;;;;;;0.75;0.20;;;16.40;99.90;;;;;;5081385;28;20026;-73
2022/04/22 12:16:32;;;;;;;0.90;0.30;;;16.40;99.90;;;;;;5097830;27;20024;-74
2022/04/22 12:19:00;;;;;;;1.88;0.20;;;16.50;99.90;;;;;;5098281;27;20030;-73
2022/04/22 12:21:34;;;;;;;2.60;0.20;;;16.40;99.90;;;;;;5096443;28;20121;-72
2022/04/22 12:24:04;;;;;;;1.60;0.25;;;16.40;99.90;;;;;;5098281;27;20780;-72
2022/04/22 12:26:36;;;;;;;1.20;0.30;;;16.40;99.90;;;;;;5098828;27;20428;-73
2022/04/22 12:29:11;;;;;;;0.40;0.25;;;16.40;99.90;;;;;;5099616;27;20085;-73
2022/04/22 12:31:49;;;;;;;1.17;0.50;;;16.40;99.90;;;;;;5099339;27;20131;-74
2022/04/22 12:34:30;;;;;;;4.40;0.75;;;16.40;99.90;;;;;;5100007;28;20125;-74
2022/04/22 12:36:59;;;;;;;2.08;0.50;;;16.40;99.90;;;;;;5104173;28;20131;-70
2022/04/22 12:39:44;;;;;;;1.98;0.45;;;16.40;99.90;;;;;;5105180;27;20019;-72
2022/04/22 12:42:17;;;;;;;0.40;0.40;;;16.30;99.90;;;;;;5100526;28;20016;-72
2022/04/22 12:53:34;;;;;;;2.22;0.60;;;16.30;99.90;;;;;;5109998;28;20291;-73
2022/04/22 12:56:07;;;;;;;2.25;0.82;;;16.20;99.90;;;;;;5094434;28;20031;-72
2022/04/22 12:58:52;;;;;;;1.83;0.60;;;16.20;99.90;;;;;;5105486;28;20028;-73
2022/04/22 13:01:40;;;;;;;1.93;1.37;;;16.20;99.90;;;;;;5107784;28;20508;-74
2022/04/22 13:04:19;;;;;;;1.85;0.77;;;16.20;99.90;;;;;;5109319;27;20016;-73
2022/04/22 13:06:48;;;;;;;4.07;0.57;;;16.20;99.90;;;;;;5108474;27;20248;-74
2022/04/22 13:09:17;;;;;;;2.20;0.80;;;16.20;99.90;;;;;;5098524;28;20961;-72
2022/04/22 13:11:44;;;;;;;0.98;0.70;;;16.20;99.90;;;;;;5098031;28;20035;-73
2022/04/22 13:14:13;;;;;;;0.82;0.60;;;16.20;99.90;;;;;;5106300;28;20095;-72
2022/04/22 13:16:40;;;;;;;3.30;0.80;;;16.20;99.90;;;;;;5108489;28;20172;-72
2022/04/22 13:19:07;;;;;;;2.63;1.00;;;16.20;99.90;;;;;;5110993;28;20074;-72
2022/04/22 13:21:35;;;;;;;2.75;0.85;;;16.20;99.90;;;;;;5107787;27;20031;-73
2022/04/22 13:24:02;;;;;;;2.45;0.90;;;16.10;99.90;;;;;;5109620;27;20039;-72
2022/04/22 13:26:29;;;;;;;3.10;0.70;;;16.10;99.90;;;;;;5106804;27;20027;-73
2022/04/22 13:28:57;;;;;;;0.65;0.60;;;16.10;99.90;;;;;;5110210;28;20028;-73
2022/04/22 13:31:25;;;;;;;4.80;0.80;;;16.00;99.90;;;;;;5107041;28;20125;-72
2022/04/22 13:33:52;;;;;;;3.45;0.70;;;16.00;99.90;;;;;;5109148;28;20051;-73
2022/04/22 13:36:19;;;;;;;1.58;0.50;;;15.90;99.90;;;;;;5109176;28;20887;-72
2022/04/22 13:38:48;;;;;;;3.55;0.90;;;15.90;99.90;;;;;;5131348;28;20500;-72
2022/04/22 13:41:16;;;;;;;0.93;0.75;;;15.90;99.90;;;;;;5102379;28;20076;-73
2022/04/22 13:43:43;;;;;;;4.28;1.10;;;15.80;99.90;;;;;;5110291;28;20385;-73
2022/04/22 13:54:47;;;;;;;2.95;0.82;;;15.70;99.90;;;;;;5094251;28;20038;-72
2022/04/22 13:57:14;;;;;;;2.58;0.80;;;15.70;99.90;;;;;;5112735;28;20461;-71
2022/04/22 13:59:41;;;;;;;1.83;0.70;;;15.70;99.90;;;;;;5129491;28;20062;-71
2022/04/22 14:02:09;;;;;;;3.25;0.70;;;15.60;99.90;;;;;;5122019;28;20018;-71
2022/04/22 14:04:37;;;;;;;1.45;0.68;;;15.60;99.90;;;;;;5110928;28;20485;-72
2022/04/22 14:07:08;;;;;;;1.83;0.75;;;15.60;99.90;;;;;;5103172;28;20031;-73
2022/04/22 14:09:37;;;;;;;4.03;0.73;;;15.60;99.90;;;;;;5099358;28;20039;-73
2022/04/22 14:12:06;;;;;;;6.38;0.70;;;15.60;99.90;;;;;;5119689;27;20085;-72
2022/04/22 14:14:33;;;;;;;3.35;0.45;;;15.50;99.90;;;;;;5127643;27;20422;-73
2022/04/22 14:17:01;;;;;;;0.98;0.35;;;15.50;99.90;;;;;;5106104;27;20034;-72
2022/04/22 14:19:29;;;;;;;1.30;0.57;;;15.50;99.90;;;;;;5113748;28;20024;-74
2022/04/22 14:21:57;;;;;;;4.35;1.10;;;15.40;99.90;;;;;;5116171;27;20027;-71
2022/04/22 14:24:26;;;;;;;5.50;0.70;;;15.40;99.90;;;;;;5102341;28;20126;-72